地図

経路データ

SID SEASON NUMBER BASIN SUBBASIN NAME ISO_TIME NATURE LAT LON WMO_WIND WMO_PRES WMO_AGENCY TRACK_TYPE DIST2LAND LANDFALL IFLAG USA_AGENCY USA_ATCF_ID USA_LAT USA_LON USA_RECORD USA_STATUS USA_WIND USA_PRES USA_SSHS USA_R34_NE USA_R34_SE USA_R34_SW USA_R34_NW USA_R50_NE USA_R50_SE USA_R50_SW USA_R50_NW USA_R64_NE USA_R64_SE USA_R64_SW USA_R64_NW USA_POCI USA_ROCI USA_RMW USA_EYE TOKYO_LAT TOKYO_LON TOKYO_GRADE TOKYO_WIND TOKYO_PRES TOKYO_R50_DIR TOKYO_R50_LONG TOKYO_R50_SHORT TOKYO_R30_DIR TOKYO_R30_LONG TOKYO_R30_SHORT TOKYO_LAND CMA_LAT CMA_LON CMA_CAT CMA_WIND CMA_PRES HKO_LAT HKO_LON HKO_CAT HKO_WIND HKO_PRES NEWDELHI_LAT NEWDELHI_LON NEWDELHI_GRADE NEWDELHI_WIND NEWDELHI_PRES NEWDELHI_CI NEWDELHI_DP NEWDELHI_POCI REUNION_LAT REUNION_LON REUNION_TYPE REUNION_WIND REUNION_PRES REUNION_TNUM REUNION_CI REUNION_RMW REUNION_R34_NE REUNION_R34_SE REUNION_R34_SW REUNION_R34_NW REUNION_R50_NE REUNION_R50_SE REUNION_R50_SW REUNION_R50_NW REUNION_R64_NE REUNION_R64_SE REUNION_R64_SW REUNION_R64_NW BOM_LAT BOM_LON BOM_TYPE BOM_WIND BOM_PRES BOM_TNUM BOM_CI BOM_RMW BOM_R34_NE BOM_R34_SE BOM_R34_SW BOM_R34_NW BOM_R50_NE BOM_R50_SE BOM_R50_SW BOM_R50_NW BOM_R64_NE BOM_R64_SE BOM_R64_SW BOM_R64_NW BOM_ROCI BOM_POCI BOM_EYE BOM_POS_METHOD BOM_PRES_METHOD NADI_LAT NADI_LON NADI_CAT NADI_WIND NADI_PRES WELLINGTON_LAT WELLINGTON_LON WELLINGTON_WIND WELLINGTON_PRES DS824_LAT DS824_LON DS824_STAGE DS824_WIND DS824_PRES TD9636_LAT TD9636_LON TD9636_STAGE TD9636_WIND TD9636_PRES TD9635_LAT TD9635_LON TD9635_WIND TD9635_PRES TD9635_ROCI NEUMANN_LAT NEUMANN_LON NEUMANN_CLASS NEUMANN_WIND NEUMANN_PRES MLC_LAT MLC_LON MLC_CLASS MLC_WIND MLC_PRES USA_GUST BOM_GUST BOM_GUST_PER REUNION_GUST REUNION_GUST_PER USA_SEAHGT USA_SEARAD_NE USA_SEARAD_SE USA_SEARAD_SW USA_SEARAD_NW STORM_SPEED STORM_DIR
1932006S16053 1932 5 SI MM NOT_NAMED 1932-01-06 06:00:00 NR -15.6000 53.3000 reunion main 300 300 _____O________ -1 -15.6000 53.3000 99 9.90000 1 24
1932006S16053 1932 5 SI MM NOT_NAMED 1932-01-06 09:00:00 NR -15.5376 53.3310 main 300 300 _____P________ -1 -15.5376 53.3310 99 1 24
1932006S16053 1932 5 SI MM NOT_NAMED 1932-01-06 12:00:00 NR -15.4859 53.3532 main 311 311 _____P________ -1 -15.4859 53.3532 99 1 0
1932006S16053 1932 5 SI MM NOT_NAMED 1932-01-06 15:00:00 NR -15.4557 53.3575 main 311 300 _____P________ -1 -15.4557 53.3575 99 0 316
1932006S16053 1932 5 SI MM NOT_NAMED 1932-01-06 18:00:00 NR -15.4576 53.3352 main 300 300 _____P________ -1 -15.4576 53.3352 99 1 238
1932006S16053 1932 5 SI MM NOT_NAMED 1932-01-06 21:00:00 NR -15.5023 53.2773 main 300 289 _____P________ -1 -15.5023 53.2773 99 2 227
1932006S16053 1932 5 SI MM NOT_NAMED 1932-01-07 00:00:00 NR -15.6005 53.1749 main 290 270 _____P________ -1 -15.6005 53.1749 99 4 224
1932006S16053 1932 5 SI MM NOT_NAMED 1932-01-07 03:00:00 NR -15.7628 53.0189 main 271 255 _____P________ -1 -15.7628 53.0189 99 6 222
1932006S16053 1932 5 SI MM NOT_NAMED 1932-01-07 06:00:00 TS -16.0333 52.7667 reunion main 255 231 _____O___OO___ -1 -16.0000 52.8000 99 9.90000 -16.1000 52.7000 TC 35 -16.1000 52.7000 2 9 223
1932006S16053 1932 5 SI MM NOT_NAMED 1932-01-07 09:00:00 TS -16.4327 52.3774 main 231 211 _____P___PP___ -1 -16.3183 52.5137 99 -16.5402 52.2478 TC 35 -16.5542 52.2344 2 12 223
1932006S16053 1932 5 SI MM NOT_NAMED 1932-01-07 12:00:00 TS -16.8877 51.9453 main 207 192 _____P___OP___ -1 -16.7071 52.1751 99 -17.0000 51.8000 TC 35 -17.0162 51.7841 2 13 221
1932006S16053 1932 5 SI MM NOT_NAMED 1932-01-07 15:00:00 TS -17.3797 51.5137 main 192 179 _____P___PP___ -1 -17.1516 51.8045 99 -17.4925 51.3700 TC 35 -17.4951 51.3667 2 13 218
1932006S16053 1932 5 SI MM NOT_NAMED 1932-01-07 18:00:00 TS -17.8791 51.1408 main 170 149 _____P___OO___ -1 -17.6372 51.4225 99 -18.0000 51.0000 TC 35 -18.0000 51.0000 2 12 213
1932006S16053 1932 5 SI MM NOT_NAMED 1932-01-07 21:00:00 TS -18.3920 50.8202 main 149 138 _____P___PP___ -1 -18.1491 51.0497 99 -18.4924 50.7123 TC 35 -18.5346 50.6986 2 12 208
1932006S16053 1932 5 SI MM NOT_NAMED 1932-01-08 00:00:00 TS -18.9175 50.5574 main 147 138 _____P___OP___ -1 -18.6730 50.7073 99 -19.0000 50.5000 TC 35 -19.0795 50.4650 2 12 203
1932006S16053 1932 5 SI MM NOT_NAMED 1932-01-08 03:00:00 TS -19.4565 50.3427 main 137 137 _____P___PP___ -1 -19.1947 50.4168 99 -19.5650 50.3125 TC 35 -19.6097 50.2988 2 11 198
1932006S16053 1932 5 SI MM NOT_NAMED 1932-01-08 06:00:00 TS -19.9667 50.2000 reunion main 146 139 _____O___OO___ -1 -19.7000 50.2000 99 9.90000 -20.1000 50.2000 TC 35 -20.1000 50.2000 2 10 192
1932006S16053 1932 5 SI MM NOT_NAMED 1932-01-08 09:00:00 TS -20.3982 50.1356 main 142 142 _____P___PP___ -1 -20.1468 50.0976 99 -20.5300 50.1698 TC 35 -20.5179 50.1394 2 8 183
1932006S16053 1932 5 SI MM NOT_NAMED 1932-01-08 12:00:00 TS -20.7941 50.1353 main 160 160 _____P___OP___ -1 -20.5877 50.0614 99 -20.9000 50.2000 TC 35 -20.8947 50.1445 2 8 177
1932006S16053 1932 5 SI MM NOT_NAMED 1932-01-08 15:00:00 TS -21.1733 50.1718 main 188 188 _____P___PP___ -1 -21.0208 50.0855 99 -21.2500 50.2276 TC 35 -21.2492 50.2023 2 8 172
1932006S16053 1932 5 SI MM NOT_NAMED 1932-01-08 18:00:00 TS -21.5481 50.2547 main 204 204 _____P___OO___ -1 -21.4442 50.1640 99 -21.6000 50.3000 TC 35 -21.6000 50.3000 2 8 166
1932006S16053 1932 5 SI MM NOT_NAMED 1932-01-08 21:00:00 TS -21.9436 50.3732 main 224 224 _____P___PP___ -1 -21.8559 50.2908 99 -22.0000 50.4349 TC 35 -21.9749 50.3939 2 8 162
1932006S16053 1932 5 SI MM NOT_NAMED 1932-01-09 00:00:00 TS -22.3345 50.5284 main 243 243 _____P___OP___ -1 -22.2537 50.4599 99 -22.4000 50.6000 TC 35 -22.3498 50.5254 2 8 158
1932006S16053 1932 5 SI MM NOT_NAMED 1932-01-09 03:00:00 TS -22.7035 50.6982 main 276 276 _____P___PP___ -1 -22.6358 50.6651 99 -22.7499 50.7353 TC 35 -22.7248 50.6942 2 8 155
1932006S16053 1932 5 SI MM NOT_NAMED 1932-01-09 06:00:00 TS -23.0667 50.9000 reunion main 312 312 _____O___OO___ -1 -23.0000 50.9000 99 9.90000 -23.1000 50.9000 TC 35 -23.1000 50.9000 2 9 152
1932006S16053 1932 5 SI MM NOT_NAMED 1932-01-09 09:00:00 TS -23.4575 51.1390 main 343 343 _____P___PP___ -1 -23.3813 51.1588 99 -23.5000 51.1275 TC 35 -23.4912 51.1308 2 9 148
1932006S16053 1932 5 SI MM NOT_NAMED 1932-01-09 12:00:00 TS -23.8427 51.4190 main 379 379 _____P___OP___ -1 -23.7483 51.4598 99 -23.9000 51.4000 TC 35 -23.8800 51.3973 2 9 144
1932006S16053 1932 5 SI MM NOT_NAMED 1932-01-09 15:00:00 TS -24.2050 51.7242 main 416 416 _____P___PP___ -1 -24.0964 51.7899 99 -24.2650 51.6926 TC 35 -24.2537 51.6903 2 9 141
1932006S16053 1932 5 SI MM NOT_NAMED 1932-01-09 18:00:00 TS -24.5404 52.0452 main 453 453 _____P___OO___ -1 -24.4211 52.1357 99 -24.6000 52.0000 TC 35 -24.6000 52.0000 2 9 138
1932006S16053 1932 5 SI MM NOT_NAMED 1932-01-09 21:00:00 TS -24.8477 52.3648 main 490 490 _____P___PP___ -1 -24.7180 52.4835 99 -24.9149 52.2927 TC 35 -24.9102 52.3182 2 8 134
1932006S16053 1932 5 SI MM NOT_NAMED 1932-01-10 00:00:00 TS -25.1103 52.7004 main 500 500 _____P___OP___ -1 -24.9829 52.8195 99 -25.2000 52.6000 TC 35 -25.1905 52.6418 2 8 128
1932006S16053 1932 5 SI MM NOT_NAMED 1932-01-10 03:00:00 TS -25.3328 53.0422 main 504 500 _____P___PP___ -1 -25.2116 53.1297 99 -25.4577 52.9397 TC 35 -25.4505 52.9696 2 7 123
1932006S16053 1932 5 SI MM NOT_NAMED 1932-01-10 06:00:00 TS -25.5000 53.3667 reunion main 507 500 _____O___OO___ -1 -25.4000 53.4000 99 9.90000 -25.7000 53.3000 TC 35 -25.7000 53.3000 2 6 112
1932006S16053 1932 5 SI MM NOT_NAMED 1932-01-10 09:00:00 NR -25.5458 53.6196 main 500 500 _____P________ -1 -25.5458 53.6196 99 TC 2 4 112
1932006S16053 1932 5 SI MM NOT_NAMED 1932-01-10 12:00:00 NR -25.6532 53.7917 main 514 510 _____P________ -1 -25.6532 53.7917 99 2 3 124
1932006S16053 1932 5 SI MM NOT_NAMED 1932-01-10 15:00:00 NR -25.7277 53.9227 main 510 507 _____P________ -1 -25.7277 53.9227 99 2 2 121
1932006S16053 1932 5 SI MM NOT_NAMED 1932-01-10 18:00:00 NR -25.7748 54.0194 main 518 514 _____P________ -1 -25.7748 54.0194 99 2 116
1932006S16053 1932 5 SI MM NOT_NAMED 1932-01-10 21:00:00 NR -25.8002 54.0887 main 514 514 _____P________ -1 -25.8002 54.0887 99 1 108
1932006S16053 1932 5 SI MM NOT_NAMED 1932-01-11 00:00:00 NR -25.8092 54.1373 main 514 512 _____P________ -1 -25.8092 54.1373 99 1 95
1932006S16053 1932 5 SI MM NOT_NAMED 1932-01-11 03:00:00 NR -25.8073 54.1721 main 512 512 _____P________ -1 -25.8073 54.1721 99 1 81
1932006S16053 1932 5 SI MM NOT_NAMED 1932-01-11 06:00:00 NR -25.8000 54.2000 reunion main 512 _____O________ -1 -25.8000 54.2000 99 9.90000 1 0

IBTrACS Databaseについて

本データベースは、米国NOAAが公開する1842年以降の世界の熱帯低気圧のベストトラックデータアーカイブInternational Best Track Archive for Climate Stewardship (IBTrACS)を、ウェブで閲覧しやすい形式に変換したものです。

最終更新日:2021-10-27